Main page
METAR-TAF:

METAR-TAF

Airports :

Banjul International Airport

Banjul, Gambia

latitude: 13-21N, longitude: 016-48W, elevation: 36 m

Current weather observation

The report was made 15 minutes ago, at 08:00 UTC
Wind 6 kt from the West/Southwest
Temperature 20°C
Humidity 88%
Pressure 1012 hPa
Visibility 10 km or more
no clouds below 1500 m and no cumulonimbus

METAR: GBYD 240800Z 25006KT CAVOK 20/18 Q1012

Time: 08:15 (08:15 UTC)

Forecast

The report was made 2 hours and 45 minutes ago, at 05:30 UTC
Forecast valid from 24 at 06 UTC to 25 at 12 UTC
Wind 8 kt from the West
Visibility 10 km or more
no clouds below 1500 m and no cumulonimbus

TAF: GBYD 240530Z 2406/2512 27008KT CAVOK

Weather observations and forecasts of more than 4000 airports (METAR and TAF reports).

The available stations are represented by yellow and red dots on the map.

Hover mouse over dot to see the name of the station.

Then click to see weather observations and forecasts.

To change the map : click on the green buttons with a black cross to zoom in, on the green button with a dash to zoom out, or on the green arrows for adjacent maps.


METAR-TAF: